Flight Track Log - Related Links

Times and Time Zones

All times are in EDT time to prevent confusion due to time zone crossing. See the SWA1718 flight status page for this flight to view local times or setup timezone preferences in your user account.

Time Position Orientation Groundspeed Altitude Reporting Facility
EDT Latitude Longitude Course Direction KTS MPH feet Rate Location/Type
Mon 11:37:00 PM 41.8167 -87.7333 90° East 231 266 3,700  Level Chicago TRACON
Mon 11:38:51 PM 41.8025 -87.5650 96° East 286 329 8,300 2,756 Climbing Chicago Center
Mon 11:39:52 PM 41.7939 -87.4425 95° East 324 373 11,600 2,754 Climbing Chicago Center
Mon 11:40:53 PM 41.7842 -87.3147 96° East 339 390 13,900 2,508 Climbing Chicago Center
Mon 11:41:54 PM 41.7747 -87.1683 95° East 383 441 16,700 2,902 Climbing Chicago Center
Mon 11:42:00 PM 41.7500 -86.8997 90° East  Level FlightAware Approximate
Mon 11:42:55 PM 41.7942 -86.9906 82° East 403 464 19,800  Level Chicago Center
Mon 11:43:56 PM 41.8147 -86.8383 80° East 414 476 22,200 2,115 Climbing Chicago Center
Mon 11:44:57 PM 41.8342 -86.6786 81° East 430 495 24,100 2,033 Climbing Chicago Center
Mon 11:45:57 PM 41.8528 -86.5092 82° East 451 519 26,300 1,884 Climbing Chicago Center
Mon 11:46:58 PM 41.8733 -86.3433 80° East 451 519 27,900 1,475 Climbing Chicago Center
Mon 11:47:59 PM 41.8931 -86.1706 81° East 463 533 29,300 1,377 Climbing Chicago Center
Mon 11:49:00 PM 41.9139 -85.9939 81° East 476 548 30,700 836 Climbing Chicago Center
Mon 11:50:01 PM 41.9347 -85.8139 81° East 485 558 31,000 595 Climbing Chicago Center
Mon 11:51:01 PM 41.9567 -85.6283 81° East 497 572 31,900 1,388 Climbing Chicago Center
Mon 11:52:02 PM 41.9769 -85.4458 81° East 490 564 33,800 1,636 Climbing Chicago Center
Mon 11:52:51 PM 41.9986 -85.2947 79° East 497 572 34,900 661 Climbing Cleveland Center
Mon 11:53:51 PM 42.0164 -85.1114 83° East 497 572 35,000 50 Climbing Cleveland Center
Mon 11:54:51 PM 42.0339 -84.9281 83° East 492 566 35,000  Level Cleveland Center
Mon 11:55:50 PM 42.0531 -84.7503 82° East 492 566 35,000  Level Cleveland Center
Mon 11:56:51 PM 42.0722 -84.5642 82° East 497 572 35,000  Level Cleveland Center
Mon 11:57:50 PM 42.0908 -84.3833 82° East 497 572 35,000  Level Cleveland Center
Mon 11:58:50 PM 42.1025 -84.2217 84° East 497 572 35,000  Level Cleveland Center
Mon 11:59:51 PM 42.1206 -84.0406 82° East 491 565 35,000  Level Cleveland Center
Tue 12:00:51 AM 42.1381 -83.8681 82° East 485 558 35,000  Level Cleveland Center
Tue 12:01:51 AM 42.1556 -83.6839 83° East 480 552 35,000  Level Cleveland Center
Tue 12:02:51 AM 42.1756 -83.4831 82° East 486 559 35,000  Level Cleveland Center
Tue 12:03:51 AM 42.1903 -83.3044 84° East 486 559 35,000  Level Cleveland Center
Tue 12:04:51 AM 42.2069 -83.1258 83° East 481 554 35,000  Level Cleveland Center
Tue 12:05:50 AM 42.2233 -82.9469 83° East 481 554 35,000  Level Cleveland Center
Tue 12:06:51 AM 42.2394 -82.7681 83° East 481 554 35,000  Level Cleveland Center
Tue 12:07:51 AM 42.2550 -82.5889 83° East 481 554 35,000  Level Cleveland Center
Tue 12:08:51 AM 42.2706 -82.4069 83° East 481 554 35,000  Level Cleveland Center
Tue 12:09:50 AM 42.2858 -82.2278 83° East 481 554 35,000  Level Cleveland Center
Tue 12:10:50 AM 42.3006 -82.0597 83° East 481 554 35,000 -350 Level Cleveland Center
Tue 12:11:50 AM 42.3153 -81.8747 84° East 481 554 34,300 -850 Descending Cleveland Center
Tue 12:12:50 AM 42.3297 -81.7011 84° East 481 554 33,300 -992 Descending Cleveland Center
Tue 12:13:51 AM 42.3397 -81.5269 86° East 474 545 32,300 -950 Descending Cleveland Center
Tue 12:14:50 AM 42.3578 -81.3333 83° East 474 545 31,400 -958 Descending Cleveland Center
Tue 12:15:50 AM 42.3692 -81.1536 85° East 474 545 30,400 -950 Descending Cleveland Center
Tue 12:16:50 AM 42.3825 -80.9767 84° East 479 551 29,500 -950 Descending Cleveland Center
Tue 12:17:50 AM 42.3953 -80.7969 84° East 479 551 28,500 -1,000 Descending Cleveland Center
Tue 12:18:50 AM 42.4103 -80.6169 84° East 479 551 27,500 -1,000 Descending Cleveland Center
Tue 12:19:50 AM 42.4561 -80.4564 69° East 458 527 26,500 -1,500 Descending Cleveland Center
Tue 12:20:50 AM 42.5017 -80.2989 69° East 448 516 24,500 -2,083 Descending Cleveland Center
Tue 12:21:51 AM 42.5450 -80.1519 68° East 426 490 22,300 -2,150 Descending Cleveland Center
Tue 12:22:50 AM 42.5839 -80.0050 70° East 414 476 20,200 -1,916 Descending Cleveland Center
Tue 12:23:50 AM 42.6269 -79.8778 65° Northeast 409 471 18,500 -1,800 Descending Cleveland Center
Tue 12:24:50 AM 42.6614 -79.7419 71° East 399 459 16,600 -1,950 Descending Cleveland Center
Tue 12:25:50 AM 42.7019 -79.6056 68° East 387 445 14,600 -2,000 Descending Cleveland Center
Tue 12:26:50 AM 42.7383 -79.4778 69° East 375 432 12,600 -1,950 Descending Cleveland Center
Tue 12:27:50 AM 42.7725 -79.3500 70° East 365 420 10,700 -1,500 Descending Cleveland Center
Tue 12:28:50 AM 42.8064 -79.2192 71° East 344 396 9,600 -1,350 Descending Cleveland Center
Tue 12:29:50 AM 42.8386 -79.1108 68° East 316 364 8,000 -1,350 Descending Cleveland Center
Tue 12:30:50 AM 42.8642 -79.0111 71° East 306 352 6,900 -1,450 Descending Cleveland Center
Tue 12:31:50 AM 42.9150 -78.9106 55° Northeast 292 336 5,100 -1,450 Descending Cleveland Center
Tue 12:32:50 AM 42.9786 -78.8381 40° Northeast 282 325 4,000 -1,100 Descending Cleveland Center
Tue 12:33:50 AM 43.0381 -78.7711 39° Northeast 282 325 2,900 -850 Descending Cleveland Center
Tue 12:34:50 AM 43.0578 -78.7022 69° East 227 261 2,300 -271 Descending Cleveland Center
Tue 12:36:03 AM 43.0000 -78.6500 147° Southeast 134 154 2,300 -271 Level Buffalo TRACON
Tue 12:37:03 AM 42.9833 -78.6833 236° Southwest 113 130 1,700 -650 Descending Buffalo TRACON
Tue 12:38:03 AM 42.9500 -78.7167 216° Southwest 123 142 1,000 -700 Descending Buffalo TRACON

Login

Don't have an account? Register now (free) for customized features, flight alerts, and more!